Time;durP1;ratioP1;P1;durP2;ratioP2;P2;SDS_P1;SDS_P2;PMS_P1;PMS_P2;Temp;Humidity;BMP_temperature;BMP_pressure;BME280_temperature;BME280_humidity;BME280_pressure;Samples;Min_cycle;Max_cycle;Signal;HPM_P1;HPM_P2
2021/03/17 00:00:06;;;;;;;14.20;5.85;;;4.90;99.90;;;;;;6272123;22;20012;-74
2021/03/17 00:02:32;;;;;;;13.25;4.78;;;4.80;99.90;;;;;;6273903;22;20414;-75
2021/03/17 00:04:57;;;;;;;13.68;4.05;;;4.70;99.90;;;;;;6273394;22;20039;-76
2021/03/17 00:07:23;;;;;;;17.00;5.63;;;4.80;99.90;;;;;;6273330;22;20027;-75
2021/03/17 00:09:49;;;;;;;15.52;5.70;;;4.70;99.90;;;;;;6273178;22;20007;-75
2021/03/17 00:12:14;;;;;;;16.25;5.57;;;4.70;99.90;;;;;;6273851;22;20385;-74
2021/03/17 00:14:40;;;;;;;17.13;5.25;;;4.80;99.90;;;;;;6274071;22;20007;-75
2021/03/17 00:17:05;;;;;;;16.77;4.93;;;4.80;99.90;;;;;;6272551;22;20006;-75
2021/03/17 00:19:31;;;;;;;16.20;5.00;;;4.90;99.90;;;;;;6273920;22;20420;-74
2021/03/17 00:21:57;;;;;;;16.15;4.78;;;4.80;99.90;;;;;;6272420;22;19999;-74
2021/03/17 00:24:23;;;;;;;17.40;5.13;;;4.80;99.90;;;;;;6273961;22;20003;-74
2021/03/17 00:26:49;;;;;;;11.95;4.93;;;4.70;99.90;;;;;;6273333;22;20420;-74
2021/03/17 00:29:15;;;;;;;15.25;4.70;;;4.70;99.90;;;;;;6273911;22;20000;-74
2021/03/17 00:31:41;;;;;;;14.13;4.90;;;4.70;99.90;;;;;;6273369;22;20444;-74
2021/03/17 00:34:06;;;;;;;14.63;4.95;;;4.80;99.90;;;;;;6272992;22;20003;-74
2021/03/17 00:36:32;;;;;;;15.57;5.97;;;4.60;99.90;;;;;;6273149;22;20069;-76
2021/03/17 00:38:57;;;;;;;18.13;5.35;;;4.60;99.90;;;;;;6272593;22;20008;-74
2021/03/17 00:41:23;;;;;;;16.35;5.40;;;4.50;99.90;;;;;;6273297;22;20667;-74
2021/03/17 00:43:49;;;;;;;15.63;4.93;;;4.50;99.90;;;;;;6273109;22;20050;-74
2021/03/17 00:46:14;;;;;;;13.45;5.10;;;4.60;99.90;;;;;;6273330;22;20003;-74
2021/03/17 00:48:40;;;;;;;16.85;6.03;;;4.70;99.90;;;;;;6273835;22;20010;-74
2021/03/17 00:51:06;;;;;;;16.63;5.35;;;4.50;99.90;;;;;;6271794;22;20061;-74
2021/03/17 00:53:31;;;;;;;15.65;5.53;;;4.60;99.90;;;;;;6273324;22;20444;-74
2021/03/17 00:55:57;;;;;;;13.30;5.78;;;4.60;99.90;;;;;;6272295;22;20003;-74
2021/03/17 00:58:22;;;;;;;15.77;5.93;;;4.50;99.90;;;;;;6272715;22;20073;-74
2021/03/17 01:00:48;;;;;;;16.35;5.43;;;4.70;99.90;;;;;;6273425;22;20004;-74
2021/03/17 01:03:13;;;;;;;15.90;5.60;;;4.50;99.90;;;;;;6218821;22;20018;-74
2021/03/17 01:05:39;;;;;;;17.70;4.88;;;4.70;99.90;;;;;;6273003;22;20007;-74
2021/03/17 01:08:05;;;;;;;14.40;5.50;;;4.70;99.90;;;;;;6272654;22;20427;-74
2021/03/17 01:10:40;;;;;;;14.07;4.95;;;4.50;99.90;;;;;;6273735;22;20455;-74
2021/03/17 01:13:06;;;;;;;16.17;5.07;;;4.50;99.90;;;;;;6272197;22;21019;-74
2021/03/17 01:15:33;;;;;;;18.45;6.05;;;4.70;99.90;;;;;;6273475;22;19999;-74
2021/03/17 01:17:59;;;;;;;15.85;5.85;;;4.70;99.90;;;;;;6271638;22;20000;-75
2021/03/17 01:20:27;;;;;;;15.10;5.95;;;4.70;99.90;;;;;;6272767;22;20015;-74
2021/03/17 01:22:55;;;;;;;14.27;5.43;;;4.50;99.90;;;;;;6271851;22;20000;-73
2021/03/17 01:25:28;;;;;;;15.82;5.95;;;4.50;99.90;;;;;;6272658;22;20011;-74
2021/03/17 01:27:54;;;;;;;13.48;5.22;;;4.50;99.90;;;;;;6272158;22;20038;-74
2021/03/17 01:30:25;;;;;;;19.05;5.65;;;4.60;99.90;;;;;;6272950;22;20004;-76
2021/03/17 01:32:57;;;;;;;15.75;5.45;;;4.70;99.90;;;;;;6272966;22;20019;-76
2021/03/17 01:35:23;;;;;;;15.80;5.47;;;4.50;99.90;;;;;;6245204;22;20353;-76
2021/03/17 01:37:48;;;;;;;18.75;5.70;;;4.60;99.90;;;;;;6272612;22;20074;-74
2021/03/17 01:40:15;;;;;;;17.63;5.43;;;4.60;99.90;;;;;;6272629;22;20008;-76
2021/03/17 01:42:41;;;;;;;16.13;5.95;;;4.50;99.90;;;;;;6272522;22;20007;-76
2021/03/17 01:45:15;;;;;;;16.15;5.70;;;4.40;99.90;;;;;;6272088;22;20447;-74
2021/03/17 01:47:45;;;;;;;18.27;5.35;;;4.30;99.90;;;;;;6272778;22;20015;-75
2021/03/17 01:50:18;;;;;;;13.35;5.53;;;4.50;99.90;;;;;;6272662;22;20011;-74
2021/03/17 01:52:44;;;;;;;17.40;5.90;;;4.30;99.90;;;;;;6245164;22;20014;-73
2021/03/17 01:55:10;;;;;;;14.52;5.30;;;4.40;99.90;;;;;;6272050;22;20439;-76
2021/03/17 01:57:37;;;;;;;18.65;5.72;;;4.30;99.90;;;;;;6271974;22;20095;-73
2021/03/17 02:00:09;;;;;;;15.18;5.47;;;4.30;99.90;;;;;;6271205;22;20424;-73
2021/03/17 02:02:39;;;;;;;12.73;4.97;;;4.40;99.90;;;;;;6273158;22;20059;-76
2021/03/17 02:05:12;;;;;;;15.55;5.47;;;4.40;99.90;;;;;;6271468;22;19999;-76
2021/03/17 02:07:38;;;;;;;18.27;5.95;;;4.40;99.90;;;;;;6272851;22;20000;-76
2021/03/17 02:10:10;;;;;;;15.70;6.15;;;4.40;99.90;;;;;;6272466;22;20015;-76
2021/03/17 02:13:09;;;;;;;16.15;5.78;;;4.50;99.90;;;;;;6272806;22;20004;-75
2021/03/17 02:15:52;;;;;;;14.45;5.60;;;4.70;99.90;;;;;;6272145;22;20420;-75
2021/03/17 02:18:27;;;;;;;16.52;6.28;;;4.80;99.90;;;;;;6272157;22;20007;-76
2021/03/17 02:21:11;;;;;;;13.65;5.25;;;4.80;99.90;;;;;;6272822;22;20194;-76
2021/03/17 02:23:50;;;;;;;21.25;8.30;;;4.80;99.90;;;;;;6245351;22;20043;-76
2021/03/17 02:26:53;;;;;;;13.35;5.70;;;4.70;99.90;;;;;;6244564;22;20022;-77
2021/03/17 02:29:53;;;;;;;14.88;5.38;;;4.60;99.90;;;;;;6271871;22;20310;-76
2021/03/17 02:32:33;;;;;;;18.48;6.15;;;4.60;99.90;;;;;;6273328;22;20387;-76
2021/03/17 02:35:04;;;;;;;16.08;6.22;;;4.60;99.90;;;;;;6273755;22;20014;-76
2021/03/17 02:37:32;;;;;;;16.60;5.90;;;4.50;99.90;;;;;;6274336;22;20070;-76
2021/03/17 02:40:04;;;;;;;13.80;5.43;;;4.60;99.90;;;;;;6273662;22;20466;-76
2021/03/17 02:42:39;;;;;;;14.30;4.88;;;4.60;99.90;;;;;;6274670;22;20004;-75
2021/03/17 02:45:07;;;;;;;13.55;4.55;;;4.60;99.90;;;;;;6273555;22;20026;-76
2021/03/17 02:47:38;;;;;;;13.48;5.40;;;4.60;99.90;;;;;;6274089;22;20007;-76
2021/03/17 02:50:05;;;;;;;12.70;5.80;;;4.60;99.90;;;;;;6273781;22;20054;-76
2021/03/17 02:52:35;;;;;;;12.82;5.43;;;4.70;99.90;;;;;;6247185;22;20034;-76
2021/03/17 02:55:02;;;;;;;18.20;8.55;;;4.60;99.90;;;;;;6273479;22;20420;-76
2021/03/17 02:57:33;;;;;;;18.20;8.73;;;4.60;99.90;;;;;;6272855;22;20008;-78
2021/03/17 02:59:59;;;;;;;;;;;4.50;99.90;;;;;;6271550;22;20047;-76
2021/03/17 03:02:25;;;;;;;13.85;5.45;;;4.60;99.90;;;;;;6272696;22;19956;-76
2021/03/17 03:04:54;;;;;;;15.52;6.38;;;4.50;99.90;;;;;;6274281;22;20008;-77
2021/03/17 03:07:23;;;;;;;15.98;6.22;;;4.40;99.90;;;;;;6273284;22;20078;-78
2021/03/17 03:09:50;;;;;;;11.85;5.05;;;4.40;99.90;;;;;;6247210;22;20085;-80
2021/03/17 03:12:18;;;;;;;20.67;8.75;;;4.40;99.90;;;;;;6273919;22;20004;-79
2021/03/17 03:14:44;;;;;;;21.08;9.40;;;4.30;99.90;;;;;;6274395;22;20058;-77
2021/03/17 03:17:12;;;;;;;18.20;7.28;;;4.20;99.90;;;;;;6271547;22;20314;-81
2021/03/17 03:19:48;;;;;;;16.40;5.60;;;4.30;99.90;;;;;;6274342;22;20012;-78
2021/03/17 03:22:15;;;;;;;23.52;8.93;;;4.30;99.90;;;;;;6272812;22;20015;-78
2021/03/17 03:24:42;;;;;;;19.55;9.00;;;4.30;99.90;;;;;;6274611;22;20007;-77
2021/03/17 03:27:08;;;;;;;17.10;6.65;;;4.20;99.90;;;;;;6273053;22;20002;-78
2021/03/17 03:29:34;;;;;;;19.25;8.68;;;4.40;99.90;;;;;;6273393;22;20042;-81
2021/03/17 03:32:02;;;;;;;16.33;7.50;;;4.20;99.90;;;;;;6273289;22;20016;-79
2021/03/17 03:34:28;;;;;;;17.20;7.45;;;4.20;99.90;;;;;;6272855;22;20049;-79
2021/03/17 03:36:54;;;;;;;18.80;8.10;;;4.30;99.90;;;;;;6274539;22;19996;-80
2021/03/17 03:39:20;;;;;;;14.40;6.85;;;4.10;99.90;;;;;;6272760;22;20011;-79
2021/03/17 03:41:46;;;;;;;21.15;7.75;;;4.20;99.90;;;;;;6273203;22;20375;-79
2021/03/17 03:44:12;;;;;;;19.77;8.05;;;4.00;99.90;;;;;;6273016;22;20009;-79
2021/03/17 03:46:38;;;;;;;19.23;7.07;;;4.00;99.90;;;;;;6273386;22;20089;-78
2021/03/17 03:49:06;;;;;;;19.00;6.72;;;4.10;99.90;;;;;;6273057;22;20419;-81
2021/03/17 03:51:33;;;;;;;17.95;7.82;;;4.20;99.90;;;;;;6274083;22;20006;-80
2021/03/17 03:54:23;;;;;;;15.52;7.28;;;4.20;99.90;;;;;;6272716;22;20004;-80
2021/03/17 03:56:59;;;;;;;19.05;6.75;;;4.20;99.90;;;;;;6272548;22;20006;-79
2021/03/17 03:59:31;;;;;;;12.48;5.68;;;4.10;99.90;;;;;;6272787;22;20023;-81
2021/03/17 04:02:00;;;;;;;11.75;4.75;;;4.20;99.90;;;;;;6272494;22;20065;-82
2021/03/17 04:04:31;;;;;;;12.32;5.15;;;4.20;99.90;;;;;;6272991;22;20003;-79
2021/03/17 04:07:01;;;;;;;11.98;4.70;;;4.10;99.90;;;;;;6272950;22;20436;-83
2021/03/17 04:09:31;;;;;;;16.30;6.65;;;4.00;99.90;;;;;;6273338;22;20007;-79
2021/03/17 04:12:00;;;;;;;14.18;6.30;;;3.80;99.90;;;;;;6272189;22;20004;-80
2021/03/17 04:14:28;;;;;;;14.60;6.00;;;4.10;99.90;;;;;;6273901;22;20439;-76
2021/03/17 04:17:00;;;;;;;12.48;4.15;;;4.00;99.90;;;;;;6272185;22;20008;-79
2021/03/17 04:19:27;;;;;;;15.18;5.70;;;4.00;99.90;;;;;;6273806;22;20008;-82
2021/03/17 04:21:56;;;;;;;14.30;5.63;;;4.00;99.90;;;;;;6272362;22;19996;-78
2021/03/17 04:24:23;;;;;;;13.80;4.75;;;4.10;99.90;;;;;;6273427;22;20010;-78
2021/03/17 04:26:50;;;;;;;12.57;5.30;;;4.10;99.90;;;;;;6273348;22;20400;-80
2021/03/17 04:29:18;;;;;;;18.98;5.35;;;4.00;99.90;;;;;;6272941;22;20043;-81
2021/03/17 04:31:46;;;;;;;14.85;5.07;;;3.90;99.90;;;;;;6272779;22;20091;-79
2021/03/17 04:34:13;;;;;;;13.93;5.97;;;4.00;99.90;;;;;;6272965;22;20078;-81
2021/03/17 04:36:39;;;;;;;11.80;4.95;;;4.00;99.90;;;;;;6274169;22;20004;-78
2021/03/17 04:39:06;;;;;;;13.13;6.20;;;4.00;99.90;;;;;;6272236;22;20363;-82
2021/03/17 04:41:31;;;;;;;13.13;5.75;;;4.00;99.90;;;;;;6273429;22;20014;-80
2021/03/17 04:43:57;;;;;;;17.98;6.22;;;3.80;99.90;;;;;;6273347;22;20023;-80
2021/03/17 04:46:23;;;;;;;15.02;5.85;;;3.90;99.90;;;;;;6272927;22;20004;-79
2021/03/17 04:48:49;;;;;;;12.98;4.93;;;4.00;99.90;;;;;;6272220;22;20034;-80
2021/03/17 04:51:18;;;;;;;17.70;7.03;;;3.90;99.90;;;;;;6272400;22;20004;-79
2021/03/17 04:53:44;;;;;;;14.53;6.40;;;3.90;99.90;;;;;;6272817;22;20000;-78
2021/03/17 04:56:11;;;;;;;14.93;6.30;;;4.00;99.90;;;;;;6272269;22;20008;-81
2021/03/17 04:58:39;;;;;;;15.38;6.30;;;3.90;99.90;;;;;;6273236;22;20000;-82
2021/03/17 05:01:08;;;;;;;12.52;5.38;;;3.90;99.90;;;;;;6245195;22;20003;-79
2021/03/17 05:03:35;;;;;;;12.90;5.00;;;4.00;99.90;;;;;;6273223;22;19995;-78
2021/03/17 05:06:03;;;;;;;17.67;6.68;;;4.00;99.90;;;;;;6271450;22;19999;-81
2021/03/17 05:08:30;;;;;;;14.13;6.35;;;4.10;99.90;;;;;;6272295;22;20320;-80
2021/03/17 05:10:56;;;;;;;14.98;5.68;;;4.00;99.90;;;;;;6272526;22;20162;-79
2021/03/17 05:13:23;;;;;;;18.70;7.57;;;4.10;99.90;;;;;;6272651;22;20076;-81
2021/03/17 05:15:50;;;;;;;18.23;7.30;;;4.00;99.90;;;;;;6273010;22;20000;-81
2021/03/17 05:18:18;;;;;;;21.48;8.43;;;4.00;99.90;;;;;;6272341;22;19996;-79
2021/03/17 05:20:48;;;;;;;13.23;5.80;;;3.90;99.90;;;;;;6272577;22;20613;-79
2021/03/17 05:23:17;;;;;;;23.95;8.40;;;4.00;99.90;;;;;;6245415;22;20448;-79
2021/03/17 05:25:43;;;;;;;19.00;7.68;;;3.90;99.90;;;;;;6271893;22;20447;-79
2021/03/17 05:28:09;;;;;;;22.73;9.88;;;3.90;99.90;;;;;;6270227;22;20011;-76
2021/03/17 05:30:37;;;;;;;18.05;8.48;;;3.90;99.90;;;;;;6245500;22;20008;-77
2021/03/17 05:33:07;;;;;;;24.25;8.85;;;4.00;99.90;;;;;;6271197;22;20026;-76
2021/03/17 05:35:33;;;;;;;23.88;8.35;;;3.90;99.90;;;;;;6272455;22;20078;-76
2021/03/17 05:37:59;;;;;;;31.70;10.95;;;4.00;99.90;;;;;;6272480;22;20041;-77
2021/03/17 05:40:24;;;;;;;20.58;8.50;;;3.90;99.90;;;;;;6191869;22;20087;-77
2021/03/17 05:42:50;;;;;;;21.65;8.70;;;4.00;99.90;;;;;;6271800;22;20011;-77
2021/03/17 05:45:19;;;;;;;22.95;8.10;;;4.00;99.90;;;;;;6271504;22;20061;-75
2021/03/17 05:47:50;;;;;;;19.23;7.93;;;4.10;99.90;;;;;;6271562;22;20004;-76
2021/03/17 05:50:18;;;;;;;20.73;9.10;;;4.00;99.90;;;;;;6271303;22;19999;-78
2021/03/17 05:52:44;;;;;;;19.50;7.97;;;3.80;99.90;;;;;;6271465;22;20079;-81
2021/03/17 05:55:12;;;;;;;14.38;5.65;;;3.70;99.90;;;;;;6271494;22;20019;-81
2021/03/17 05:57:41;;;;;;;15.88;5.85;;;3.50;99.90;;;;;;6272049;22;19999;-77
2021/03/17 06:00:13;;;;;;;16.60;7.10;;;3.60;99.90;;;;;;6272059;22;20446;-80
2021/03/17 06:02:39;;;;;;;18.27;5.82;;;3.50;99.90;;;;;;6271426;22;19999;-79
2021/03/17 06:05:07;;;;;;;15.05;5.88;;;3.40;99.90;;;;;;6270896;22;20054;-78
2021/03/17 06:07:42;;;;;;;14.02;4.97;;;3.20;99.90;;;;;;6272031;22;19996;-79
2021/03/17 06:10:09;;;;;;;17.27;6.00;;;3.40;99.90;;;;;;6271492;22;20023;-76
2021/03/17 06:12:37;;;;;;;16.30;5.30;;;3.40;99.90;;;;;;6271892;22;20003;-76
2021/03/17 06:15:06;;;;;;;14.35;4.38;;;3.60;99.90;;;;;;6244890;22;20004;-79
2021/03/17 06:17:34;;;;;;;14.73;5.00;;;3.50;99.90;;;;;;6272064;22;20061;-80
2021/03/17 06:20:07;;;;;;;16.63;5.50;;;3.30;99.90;;;;;;6272253;22;20368;-79
2021/03/17 06:22:37;;;;;;;10.48;4.03;;;3.20;99.90;;;;;;6271725;22;20062;-75
2021/03/17 06:25:06;;;;;;;10.65;4.03;;;3.20;99.90;;;;;;6271502;22;20034;-77
2021/03/17 06:27:35;;;;;;;12.45;4.22;;;3.40;99.90;;;;;;6271993;22;20347;-76
2021/03/17 06:30:04;;;;;;;9.50;3.30;;;3.30;99.90;;;;;;6272592;22;20028;-74
2021/03/17 06:32:32;;;;;;;13.07;3.10;;;3.40;99.90;;;;;;6270501;22;20456;-75
2021/03/17 06:34:58;;;;;;;16.65;3.08;;;3.30;99.90;;;;;;6272007;22;20070;-80
2021/03/17 06:37:39;;;;;;;9.55;2.47;;;3.10;99.90;;;;;;6271463;22;20027;-82
2021/03/17 06:40:30;;;;;;;8.32;3.03;;;3.10;99.90;;;;;;6272224;22;20015;-81
2021/03/17 06:43:02;;;;;;;8.10;3.10;;;3.10;99.90;;;;;;6266652;22;20176;-76
2021/03/17 06:45:48;;;;;;;10.73;3.03;;;3.00;99.90;;;;;;6270962;22;20038;-75
2021/03/17 06:48:18;;;;;;;11.18;2.53;;;3.10;99.90;;;;;;6272459;22;20007;-75
2021/03/17 06:50:44;;;;;;;;;;;3.40;99.90;;;;;;6271450;22;20077;-76
2021/03/17 06:53:10;;;;;;;11.75;3.50;;;3.40;99.90;;;;;;6271480;22;19903;-76
2021/03/17 06:55:36;;;;;;;15.32;4.10;;;3.30;99.90;;;;;;6271471;22;20395;-77
2021/03/17 06:58:01;;;;;;;16.33;4.10;;;3.40;99.90;;;;;;6271137;22;20007;-77
2021/03/17 07:00:27;;;;;;;13.45;4.03;;;3.40;99.90;;;;;;6243577;22;20015;-77
2021/03/17 07:02:56;;;;;;;20.35;5.30;;;3.40;99.90;;;;;;6271848;22;20436;-77
2021/03/17 07:05:36;;;;;;;15.65;4.80;;;3.40;99.90;;;;;;6271139;22;20011;-79
2021/03/17 07:08:03;;;;;;;19.30;5.57;;;3.30;99.90;;;;;;6272052;22;20428;-78
2021/03/17 07:10:40;;;;;;;16.77;4.50;;;3.20;99.90;;;;;;6270449;22;20011;-75
2021/03/17 07:13:09;;;;;;;13.57;4.35;;;3.20;99.90;;;;;;6272398;22;20011;-75
2021/03/17 07:15:37;;;;;;;12.85;3.72;;;3.20;99.90;;;;;;6270851;22;19999;-76
2021/03/17 07:18:26;;;;;;;16.10;3.65;;;3.10;99.90;;;;;;6272194;22;20010;-76
2021/03/17 07:20:55;;;;;;;18.90;3.85;;;3.10;99.90;;;;;;6273290;22;20058;-77
2021/03/17 07:23:26;;;;;;;10.05;3.45;;;3.10;99.90;;;;;;6273128;22;20038;-77
2021/03/17 07:26:17;;;;;;;13.27;3.67;;;3.10;99.90;;;;;;6273959;22;20007;-76
2021/03/17 07:28:51;;;;;;;9.68;3.10;;;3.10;99.90;;;;;;6272889;22;20053;-76
2021/03/17 07:31:22;;;;;;;8.73;3.05;;;3.20;99.90;;;;;;6273087;22;20000;-77
2021/03/17 07:33:49;;;;;;;12.63;3.65;;;3.20;99.90;;;;;;6274701;22;20015;-78
2021/03/17 07:36:35;;;;;;;14.45;4.55;;;3.30;99.90;;;;;;6269177;22;20004;-76
2021/03/17 07:39:07;;;;;;;14.90;4.13;;;3.50;99.90;;;;;;6271773;22;20104;-77
2021/03/17 07:41:34;;;;;;;15.18;3.33;;;3.70;99.90;;;;;;6272348;22;20012;-75
2021/03/17 07:44:02;;;;;;;13.77;3.75;;;4.00;99.90;;;;;;6273627;22;20041;-76
2021/03/17 07:46:29;;;;;;;10.07;2.70;;;4.00;99.90;;;;;;6272441;22;20007;-75
2021/03/17 07:48:56;;;;;;;10.65;2.78;;;4.20;99.90;;;;;;6273382;22;20436;-77
2021/03/17 07:51:22;;;;;;;12.73;2.60;;;4.20;99.90;;;;;;6273069;22;20061;-75
2021/03/17 07:53:51;;;;;;;10.60;2.08;;;4.20;99.90;;;;;;6271990;22;20003;-75
2021/03/17 07:56:21;;;;;;;11.50;3.78;;;4.40;99.90;;;;;;6271646;22;20019;-77
2021/03/17 07:58:51;;;;;;;13.68;3.30;;;4.20;99.90;;;;;;6272490;22;20583;-76
2021/03/17 08:01:19;;;;;;;17.70;3.00;;;4.20;99.90;;;;;;6272242;22;20003;-76
2021/03/17 08:03:50;;;;;;;9.20;2.70;;;4.40;99.90;;;;;;6273095;22;20000;-78
2021/03/17 08:06:20;;;;;;;14.55;3.72;;;4.30;99.90;;;;;;6271071;22;20034;-76
2021/03/17 08:08:47;;;;;;;10.05;3.28;;;4.30;99.90;;;;;;6270640;22;20075;-79
2021/03/17 08:11:16;;;;;;;11.40;2.40;;;4.10;99.90;;;;;;6270641;22;20010;-76
2021/03/17 08:13:48;;;;;;;9.02;2.80;;;4.40;99.90;;;;;;6271536;22;20355;-77
2021/03/17 08:16:21;;;;;;;10.40;2.80;;;4.20;99.90;;;;;;6271533;22;20066;-77
2021/03/17 08:18:48;;;;;;;13.07;2.92;;;4.40;99.90;;;;;;6271737;22;20432;-76
2021/03/17 08:21:15;;;;;;;10.13;3.00;;;4.40;99.90;;;;;;6272106;22;20591;-74
2021/03/17 08:23:48;;;;;;;11.88;3.10;;;4.70;99.90;;;;;;6272119;22;20007;-77
2021/03/17 08:26:22;;;;;;;13.60;4.13;;;4.60;99.90;;;;;;6270667;22;20408;-77
2021/03/17 08:28:53;;;;;;;9.90;2.70;;;4.70;99.90;;;;;;6271242;22;20077;-77
2021/03/17 08:31:37;;;;;;;10.60;4.00;;;4.80;99.90;;;;;;6271210;22;20010;-71
2021/03/17 08:34:17;;;;;;;11.68;3.60;;;4.60;99.90;;;;;;6272799;22;20008;-76
2021/03/17 08:36:44;;;;;;;9.20;3.47;;;4.70;99.90;;;;;;6273204;22;20014;-76
2021/03/17 08:39:10;;;;;;;9.50;3.58;;;4.70;99.90;;;;;;6272012;22;20007;-76
2021/03/17 08:41:40;;;;;;;16.70;4.88;;;4.70;99.90;;;;;;6272878;22;20339;-76
2021/03/17 08:44:17;;;;;;;10.65;3.55;;;4.60;99.90;;;;;;6272005;22;19999;-75
2021/03/17 08:46:43;;;;;;;12.63;3.97;;;4.50;99.90;;;;;;6272492;22;20024;-75
2021/03/17 08:49:14;;;;;;;12.18;4.07;;;4.50;99.90;;;;;;6273070;22;20003;-75
2021/03/17 08:51:45;;;;;;;11.88;3.90;;;4.60;99.90;;;;;;6272502;22;20004;-76
2021/03/17 08:54:32;;;;;;;15.18;4.10;;;4.60;99.90;;;;;;6272676;22;20436;-77
2021/03/17 08:56:59;;;;;;;14.23;3.75;;;4.70;99.90;;;;;;6272911;22;20087;-75
2021/03/17 08:59:39;;;;;;;12.20;4.47;;;5.00;99.90;;;;;;6243884;22;20019;-77
2021/03/17 09:02:15;;;;;;;11.88;4.10;;;4.80;99.90;;;;;;6272675;22;20066;-76
2021/03/17 09:04:52;;;;;;;11.32;3.75;;;4.70;99.90;;;;;;6272813;22;20057;-73
2021/03/17 09:07:20;;;;;;;13.25;5.35;;;5.00;99.90;;;;;;6270827;22;20008;-76
2021/03/17 09:09:50;;;;;;;12.40;4.00;;;4.90;99.90;;;;;;6272805;22;20000;-76
2021/03/17 09:12:18;;;;;;;10.32;3.30;;;4.90;99.90;;;;;;6271754;22;20026;-76
2021/03/17 09:14:44;;;;;;;16.85;4.18;;;4.90;99.90;;;;;;6272999;22;20038;-75
2021/03/17 09:17:17;;;;;;;11.63;5.20;;;5.00;99.90;;;;;;6272225;22;20329;-76
2021/03/17 09:19:57;;;;;;;13.15;3.78;;;4.90;99.90;;;;;;6272978;22;20012;-76
2021/03/17 09:22:30;;;;;;;14.20;3.33;;;5.20;99.90;;;;;;6271511;22;20085;-77
2021/03/17 09:24:56;;;;;;;14.07;3.88;;;5.60;99.90;;;;;;6246163;22;20082;-77
2021/03/17 09:27:22;;;;;;;14.98;4.00;;;5.60;99.90;;;;;;6271663;22;20106;-74
2021/03/17 09:29:49;;;;;;;11.02;3.70;;;5.80;99.90;;;;;;6272928;22;20008;-74
2021/03/17 09:32:16;;;;;;;10.15;3.85;;;5.70;99.90;;;;;;6271490;22;20026;-76
2021/03/17 09:34:42;;;;;;;9.63;3.63;;;5.20;99.90;;;;;;6272208;22;20340;-76
2021/03/17 09:37:09;;;;;;;8.73;3.38;;;5.00;99.90;;;;;;6244948;22;20004;-76
2021/03/17 09:39:37;;;;;;;12.02;3.92;;;4.70;99.90;;;;;;6270176;22;20065;-75
2021/03/17 09:42:04;;;;;;;13.65;4.18;;;4.70;99.90;;;;;;6272405;22;20006;-73
2021/03/17 09:44:30;;;;;;;13.85;4.38;;;4.70;99.90;;;;;;6272051;22;20080;-74
2021/03/17 09:46:55;;;;;;;15.20;4.47;;;4.80;99.90;;;;;;6271560;22;20036;-73
2021/03/17 09:49:26;;;;;;;15.63;4.90;;;4.90;99.90;;;;;;6270141;22;20375;-74
2021/03/17 09:51:54;;;;;;;12.82;4.85;;;4.90;99.90;;;;;;6270711;22;20035;-74
2021/03/17 09:54:22;;;;;;;10.32;3.80;;;5.00;99.90;;;;;;6268947;22;20000;-76
2021/03/17 09:57:05;;;;;;;12.02;3.97;;;5.30;99.90;;;;;;6270555;22;20487;-76
2021/03/17 09:59:32;;;;;;;10.68;4.18;;;5.10;99.90;;;;;;6270627;22;20068;-73
2021/03/17 10:02:02;;;;;;;10.73;4.20;;;5.20;99.90;;;;;;6270045;22;20004;-75
2021/03/17 10:04:43;;;;;;;11.40;4.22;;;5.10;99.90;;;;;;6269883;22;20007;-75
2021/03/17 10:07:10;;;;;;;;;;;5.10;99.90;;;;;;6270879;22;20004;-74
2021/03/17 10:09:36;;;;;;;9.77;3.33;;;5.30;99.90;;;;;;6270023;22;19906;-75
2021/03/17 10:12:08;;;;;;;9.10;3.38;;;5.10;99.90;;;;;;6244865;22;20503;-76
2021/03/17 10:14:39;;;;;;;10.25;3.33;;;5.10;99.90;;;;;;6269884;22;19999;-76
2021/03/17 10:17:07;;;;;;;8.10;2.50;;;5.20;99.90;;;;;;6270351;22;19996;-76
2021/03/17 10:19:34;;;;;;;10.57;3.50;;;5.40;99.90;;;;;;6271481;22;20015;-77
2021/03/17 10:22:00;;;;;;;11.85;3.20;;;5.50;99.90;;;;;;6243980;22;20416;-75
2021/03/17 10:24:33;;;;;;;10.50;3.83;;;5.50;99.90;;;;;;6270248;22;20000;-75
2021/03/17 10:27:00;;;;;;;9.43;3.53;;;5.60;99.90;;;;;;6271780;22;20007;-76
2021/03/17 10:29:26;;;;;;;14.13;4.45;;;5.50;99.90;;;;;;6270607;22;20078;-76
2021/03/17 10:31:55;;;;;;;13.55;3.90;;;5.60;99.90;;;;;;6271271;22;20028;-73
2021/03/17 10:34:25;;;;;;;11.55;3.63;;;5.90;99.90;;;;;;6270315;22;20008;-73
2021/03/17 10:36:55;;;;;;;10.70;3.00;;;6.20;99.90;;;;;;6271431;22;20424;-73
2021/03/17 10:39:26;;;;;;;12.55;3.00;;;6.60;99.90;;;;;;6270259;22;20011;-73
2021/03/17 10:41:51;;;;;;;9.88;3.40;;;6.60;99.90;;;;;;6270458;22;20007;-73
2021/03/17 10:44:23;;;;;;;9.57;2.83;;;6.30;99.90;;;;;;6271058;22;20000;-73
2021/03/17 10:47:09;;;;;;;10.02;3.05;;;6.30;99.90;;;;;;6244896;22;20069;-74
2021/03/17 10:49:45;;;;;;;8.38;2.67;;;6.30;99.90;;;;;;6270917;22;20014;-73
2021/03/17 10:52:11;;;;;;;8.98;3.10;;;6.50;99.90;;;;;;6272963;22;20011;-73
2021/03/17 10:54:44;;;;;;;8.35;2.38;;;6.30;99.90;;;;;;6272825;22;20015;-73
2021/03/17 10:57:23;;;;;;;11.95;2.90;;;6.20;99.90;;;;;;6274804;22;20000;-73
2021/03/17 10:59:50;;;;;;;7.03;1.93;;;6.10;99.90;;;;;;6273984;22;20094;-74
2021/03/17 11:02:30;;;;;;;5.60;2.10;;;6.20;99.90;;;;;;6274568;22;20003;-74
2021/03/17 11:05:34;;;;;;;11.48;2.40;;;6.50;99.90;;;;;;6273889;22;20007;-74
2021/03/17 11:08:07;;;;;;;10.48;2.30;;;6.20;99.90;;;;;;6269218;22;20003;-74
2021/03/17 11:10:32;;;;;;;9.43;2.50;;;6.20;99.90;;;;;;6272216;22;20581;-73
2021/03/17 11:13:00;;;;;;;6.22;2.20;;;6.40;99.90;;;;;;6273331;22;19996;-75
2021/03/17 11:15:28;;;;;;;9.80;2.13;;;5.90;99.90;;;;;;6273036;22;20008;-73
2021/03/17 11:17:55;;;;;;;11.88;2.30;;;6.00;99.90;;;;;;6273235;22;20107;-76
2021/03/17 11:20:22;;;;;;;9.68;2.10;;;5.80;99.90;;;;;;6272279;22;20528;-76
2021/03/17 11:22:47;;;;;;;10.43;2.33;;;5.70;99.90;;;;;;6273305;22;20023;-76
2021/03/17 11:25:13;;;;;;;5.90;1.80;;;5.50;99.90;;;;;;6273515;22;20023;-76
2021/03/17 11:27:41;;;;;;;7.88;2.40;;;5.60;99.90;;;;;;6273124;22;20004;-75
2021/03/17 11:30:09;;;;;;;7.72;2.90;;;5.40;99.90;;;;;;6274208;22;20015;-76
2021/03/17 11:32:34;;;;;;;14.55;3.22;;;5.30;99.90;;;;;;6240738;23;20087;-76
2021/03/17 11:35:00;;;;;;;5.60;2.17;;;5.20;99.90;;;;;;6243777;23;20046;-75
2021/03/17 11:37:26;;;;;;;9.85;2.33;;;5.40;99.90;;;;;;6240863;23;20046;-76
2021/03/17 11:39:52;;;;;;;6.95;2.42;;;5.30;99.90;;;;;;6242286;22;20270;-76
2021/03/17 11:42:18;;;;;;;6.80;2.40;;;5.60;99.90;;;;;;6243273;23;19996;-73
2021/03/17 11:44:43;;;;;;;11.05;3.08;;;5.70;99.90;;;;;;6243001;23;20075;-75
2021/03/17 11:47:09;;;;;;;10.70;2.88;;;5.60;99.90;;;;;;6241292;23;20028;-76
2021/03/17 11:49:35;;;;;;;10.73;3.10;;;5.50;99.90;;;;;;6241027;23;20079;-73
2021/03/17 11:52:00;;;;;;;9.45;2.63;;;5.80;99.90;;;;;;6241672;22;20058;-73
2021/03/17 11:54:27;;;;;;;9.05;2.47;;;6.00;99.90;;;;;;6241370;23;20000;-76
2021/03/17 11:56:52;;;;;;;8.63;2.25;;;6.30;99.90;;;;;;6242040;23;20067;-74
2021/03/17 11:59:18;;;;;;;8.88;2.63;;;6.30;99.90;;;;;;6242436;23;20008;-74
2021/03/17 12:01:44;;;;;;;10.20;2.50;;;6.10;99.90;;;;;;6242211;22;20011;-75
2021/03/17 12:04:10;;;;;;;10.23;3.08;;;5.90;99.90;;;;;;6242052;23;20000;-73
2021/03/17 12:06:35;;;;;;;10.00;2.97;;;6.00;99.90;;;;;;6241389;22;20053;-74
2021/03/17 12:09:02;;;;;;;11.18;2.90;;;6.10;99.90;;;;;;6242492;23;20007;-75
2021/03/17 12:11:29;;;;;;;11.50;2.90;;;5.70;99.90;;;;;;6240392;23;20081;-76
2021/03/17 12:13:55;;;;;;;13.65;3.63;;;5.50;99.90;;;;;;6241737;23;20050;-77
2021/03/17 12:16:21;;;;;;;13.57;3.28;;;5.70;99.90;;;;;;6242089;22;20008;-76
2021/03/17 12:18:47;;;;;;;9.27;3.10;;;5.50;99.90;;;;;;6242923;22;20039;-76
2021/03/17 12:21:14;;;;;;;13.68;3.53;;;5.50;99.90;;;;;;6241608;23;20004;-78
2021/03/17 12:23:40;;;;;;;10.10;3.28;;;5.30;99.90;;;;;;6242315;23;20083;-76
2021/03/17 12:26:06;;;;;;;9.02;2.92;;;5.40;99.90;;;;;;6242598;22;20015;-76
2021/03/17 12:28:32;;;;;;;8.15;2.95;;;6.00;99.90;;;;;;6242608;22;20033;-73
2021/03/17 12:30:57;;;;;;;10.75;3.33;;;5.90;99.90;;;;;;6243015;23;20601;-76
2021/03/17 12:33:23;;;;;;;8.48;3.50;;;6.00;99.90;;;;;;6265602;22;20012;-78
2021/03/17 12:35:49;;;;;;;10.40;3.40;;;5.90;99.90;;;;;;6272097;22;20011;-76
2021/03/17 12:38:14;;;;;;;9.88;3.00;;;5.90;99.90;;;;;;6271289;22;20000;-76
2021/03/17 12:40:40;;;;;;;9.43;3.03;;;5.90;99.90;;;;;;6269909;22;20387;-73
2021/03/17 12:43:06;;;;;;;11.27;2.90;;;6.20;99.90;;;;;;6243166;22;20007;-74
2021/03/17 12:45:32;;;;;;;9.52;2.92;;;6.00;99.90;;;;;;6269625;22;20015;-76
2021/03/17 12:47:58;;;;;;;9.25;2.97;;;6.10;99.90;;;;;;6271671;22;20003;-77
2021/03/17 12:50:25;;;;;;;12.57;2.58;;;6.30;99.90;;;;;;6270462;22;20435;-76
2021/03/17 12:52:51;;;;;;;9.35;2.78;;;6.80;99.90;;;;;;6242986;22;20034;-77
2021/03/17 12:55:17;;;;;;;10.15;3.15;;;6.50;99.90;;;;;;6271095;22;19999;-73
2021/03/17 12:57:43;;;;;;;7.78;2.95;;;6.90;99.90;;;;;;6270575;22;20053;-76
2021/03/17 13:00:13;;;;;;;9.57;2.50;;;8.40;99.90;;;;;;6271715;22;20020;-74